Time;durP1;ratioP1;P1;durP2;ratioP2;P2;SDS_P1;SDS_P2;PMS_P1;PMS_P2;Temp;Humidity;BMP_temperature;BMP_pressure;BME280_temperature;BME280_humidity;BME280_pressure;Samples;Min_cycle;Max_cycle;Signal;HPM_P1;HPM_P2
2022/04/09 00:00:13;;;;;;;9.87;5.60;;;4.30;99.90;;;;;;5075112;28;20174;-63
2022/04/09 00:02:39;;;;;;;10.63;5.80;;;4.30;99.90;;;;;;5076112;28;20238;-64
2022/04/09 00:05:06;;;;;;;12.27;6.00;;;4.30;99.90;;;;;;5076133;28;20572;-63
2022/04/09 00:07:32;;;;;;;12.17;6.13;;;4.30;99.90;;;;;;5076136;28;20252;-61
2022/04/09 00:09:58;;;;;;;11.93;6.10;;;4.30;99.90;;;;;;5075443;28;20289;-65
2022/04/09 00:12:24;;;;;;;8.07;5.40;;;4.30;99.90;;;;;;5076800;28;20151;-62
2022/04/09 00:14:49;;;;;;;11.93;5.87;;;4.30;99.90;;;;;;5075143;28;20182;-62
2022/04/09 00:17:15;;;;;;;10.40;5.87;;;4.30;99.90;;;;;;5074694;28;20182;-64
2022/04/09 00:19:41;;;;;;;12.70;5.87;;;4.20;99.90;;;;;;5074233;28;20205;-62
2022/04/09 00:22:06;;;;;;;7.50;5.10;;;4.20;99.90;;;;;;5075792;28;20166;-63
2022/04/09 00:24:32;;;;;;;17.10;5.80;;;4.20;99.90;;;;;;5059907;28;20182;-62
2022/04/09 00:26:58;;;;;;;9.60;5.73;;;4.20;99.90;;;;;;5071213;28;20177;-64
2022/04/09 00:29:23;;;;;;;8.33;5.50;;;4.20;99.90;;;;;;5075584;28;20201;-62
2022/04/09 00:31:49;;;;;;;13.03;5.83;;;4.20;99.90;;;;;;5075624;28;20669;-62
2022/04/09 00:34:15;;;;;;;13.30;5.97;;;4.20;99.90;;;;;;5075492;28;20220;-64
2022/04/09 00:36:40;;;;;;;9.07;5.13;;;4.10;99.90;;;;;;5075914;28;20170;-64
2022/04/09 00:39:06;;;;;;;10.70;5.70;;;4.20;99.90;;;;;;5075585;28;20186;-63
2022/04/09 00:41:32;;;;;;;9.30;5.33;;;4.20;99.90;;;;;;5075323;28;20166;-62
2022/04/09 00:43:58;;;;;;;9.97;5.63;;;4.30;99.90;;;;;;5075385;28;20177;-61
2022/04/09 00:46:23;;;;;;;10.20;5.60;;;4.30;99.90;;;;;;5075327;28;20177;-62
2022/04/09 00:48:49;;;;;;;16.67;6.27;;;4.30;99.90;;;;;;5075209;28;20201;-62
2022/04/09 00:51:15;;;;;;;8.67;5.77;;;4.30;99.90;;;;;;5073653;28;20185;-62
2022/04/09 00:53:42;;;;;;;11.53;5.60;;;4.30;99.90;;;;;;5066477;28;20205;-62
2022/04/09 00:56:13;;;;;;;10.27;5.80;;;4.30;99.90;;;;;;5064205;28;20178;-62
2022/04/09 00:58:54;;;;;;;10.53;5.60;;;4.30;99.90;;;;;;5075248;28;20190;-64
2022/04/09 01:01:21;;;;;;;8.17;5.37;;;4.30;99.90;;;;;;5075633;28;20651;-62
2022/04/09 01:03:49;;;;;;;12.47;5.90;;;4.30;99.90;;;;;;5074934;28;20173;-62
2022/04/09 01:06:15;;;;;;;16.17;5.77;;;4.30;99.90;;;;;;5074724;28;20664;-61
2022/04/09 01:08:41;;;;;;;8.77;5.77;;;4.30;99.90;;;;;;5074950;28;20204;-62
2022/04/09 01:11:07;;;;;;;7.53;6.17;;;4.30;99.90;;;;;;5074603;28;20197;-62
2022/04/09 01:13:34;;;;;;;13.27;6.53;;;4.30;99.90;;;;;;5074914;28;20301;-62
2022/04/09 01:16:00;;;;;;;17.67;7.10;;;4.30;99.90;;;;;;5074750;28;20154;-62
2022/04/09 01:18:26;;;;;;;12.73;7.30;;;4.30;99.90;;;;;;5074578;28;20701;-62
2022/04/09 01:20:51;;;;;;;11.30;6.20;;;4.30;99.90;;;;;;5073953;28;20169;-62
2022/04/09 01:23:17;;;;;;;11.37;6.97;;;4.40;99.90;;;;;;5068957;28;20190;-61
2022/04/09 01:25:43;;;;;;;10.10;6.20;;;4.40;99.90;;;;;;5060072;28;20189;-61
2022/04/09 01:28:09;;;;;;;16.33;7.03;;;4.40;99.90;;;;;;5074393;28;20540;-61
2022/04/09 01:30:34;;;;;;;13.93;7.53;;;4.40;99.90;;;;;;5074383;28;20261;-62
2022/04/09 01:33:00;;;;;;;9.93;7.03;;;4.40;99.90;;;;;;5074543;28;20205;-62
2022/04/09 01:35:26;;;;;;;17.07;7.67;;;4.40;99.90;;;;;;5074015;28;20589;-62
2022/04/09 01:37:51;;;;;;;21.83;7.63;;;4.40;99.90;;;;;;5074203;28;20178;-62
2022/04/09 01:40:17;;;;;;;9.63;6.90;;;4.40;99.90;;;;;;5074206;28;20514;-62
2022/04/09 01:42:43;;;;;;;12.93;6.33;;;4.50;99.90;;;;;;5075073;28;20174;-62
2022/04/09 01:45:09;;;;;;;13.90;7.33;;;4.50;99.90;;;;;;5074014;28;20170;-64
2022/04/09 01:47:40;;;;;;;11.67;6.93;;;4.40;99.90;;;;;;5073150;28;20609;-62
2022/04/09 01:50:08;;;;;;;14.73;7.20;;;4.50;99.90;;;;;;5073762;28;20286;-64
2022/04/09 01:52:34;;;;;;;13.83;6.90;;;4.40;99.90;;;;;;5073906;28;20162;-64
2022/04/09 01:54:59;;;;;;;19.00;7.97;;;4.40;99.90;;;;;;5053028;28;20189;-66
2022/04/09 01:57:25;;;;;;;15.47;6.47;;;4.50;99.90;;;;;;5073334;28;20263;-64
2022/04/09 01:59:51;;;;;;;10.73;6.43;;;4.40;99.90;;;;;;5074136;28;20193;-64
2022/04/09 02:02:17;;;;;;;10.93;6.50;;;4.40;99.90;;;;;;5073914;28;20180;-61
2022/04/09 02:04:42;;;;;;;14.77;7.20;;;4.40;99.90;;;;;;5073805;28;20173;-63
2022/04/09 02:07:08;;;;;;;14.93;7.40;;;4.40;99.90;;;;;;5072598;28;20205;-62
2022/04/09 02:09:34;;;;;;;18.60;6.20;;;4.40;99.90;;;;;;5072294;28;20202;-62
2022/04/09 02:11:59;;;;;;;19.43;7.07;;;4.40;99.90;;;;;;5072430;28;20204;-62
2022/04/09 02:14:25;;;;;;;13.53;7.13;;;4.40;99.90;;;;;;5073624;28;20258;-62
2022/04/09 02:16:51;;;;;;;13.93;6.87;;;4.40;99.90;;;;;;5073642;28;20174;-61
2022/04/09 02:19:17;;;;;;;14.87;6.50;;;4.40;99.90;;;;;;5073924;28;20228;-62
2022/04/09 02:21:43;;;;;;;9.93;7.03;;;4.40;99.90;;;;;;5072071;28;20176;-62
2022/04/09 02:24:09;;;;;;;19.67;7.80;;;4.40;99.90;;;;;;5059664;28;20191;-62
2022/04/09 02:26:35;;;;;;;18.97;7.87;;;4.50;99.90;;;;;;5065947;28;20197;-62
2022/04/09 02:29:01;;;;;;;14.17;7.13;;;4.50;99.90;;;;;;5073564;28;20278;-62
2022/04/09 02:31:26;;;;;;;17.77;7.03;;;4.50;99.90;;;;;;5071716;28;20178;-62
2022/04/09 02:33:53;;;;;;;16.43;7.57;;;4.50;99.90;;;;;;5073523;28;20253;-63
2022/04/09 02:36:20;;;;;;;20.87;7.87;;;4.50;99.90;;;;;;5073474;28;20189;-62
2022/04/09 02:38:46;;;;;;;17.73;8.40;;;4.50;99.90;;;;;;5072736;28;20194;-61
2022/04/09 02:41:12;;;;;;;10.37;7.77;;;4.50;99.90;;;;;;5074030;28;20508;-61
2022/04/09 02:43:40;;;;;;;17.97;7.33;;;4.50;99.90;;;;;;5072368;28;20208;-61
2022/04/09 02:46:05;;;;;;;16.80;7.70;;;4.50;99.90;;;;;;5073378;28;20261;-62
2022/04/09 02:48:31;;;;;;;13.77;7.80;;;4.50;99.90;;;;;;5073398;28;20276;-62
2022/04/09 02:50:57;;;;;;;19.37;8.30;;;4.50;99.90;;;;;;5073046;28;20205;-61
2022/04/09 02:53:23;;;;;;;25.80;7.83;;;4.50;99.90;;;;;;5066943;28;20205;-62
2022/04/09 02:55:49;;;;;;;18.80;7.77;;;4.50;99.90;;;;;;5059373;28;20227;-61
2022/04/09 02:58:15;;;;;;;17.43;7.77;;;4.50;99.90;;;;;;5073363;28;20692;-61
2022/04/09 03:00:40;;;;;;;15.90;8.57;;;4.50;99.90;;;;;;5073252;28;20661;-61
2022/04/09 03:03:07;;;;;;;16.53;7.67;;;4.50;99.90;;;;;;5073233;28;20311;-61
2022/04/09 03:05:33;;;;;;;12.53;8.17;;;4.40;99.90;;;;;;5073258;28;20535;-61
2022/04/09 03:07:59;;;;;;;20.90;8.57;;;4.30;99.90;;;;;;5073161;28;20181;-61
2022/04/09 03:10:25;;;;;;;18.20;8.60;;;4.20;99.90;;;;;;5073003;28;20541;-62
2022/04/09 03:12:50;;;;;;;17.17;8.37;;;4.20;99.90;;;;;;5072030;28;20668;-62
2022/04/09 03:15:16;;;;;;;11.40;6.80;;;4.10;99.90;;;;;;5073614;28;20235;-62
2022/04/09 03:17:42;;;;;;;17.37;8.20;;;4.10;99.90;;;;;;5073035;28;20193;-61
2022/04/09 03:20:09;;;;;;;16.43;8.80;;;4.10;99.90;;;;;;5072682;28;20213;-61
2022/04/09 03:22:35;;;;;;;17.97;8.73;;;4.10;99.90;;;;;;5072920;28;20170;-61
2022/04/09 03:25:01;;;;;;;14.57;8.47;;;4.10;99.90;;;;;;5051867;28;20193;-61
2022/04/09 03:27:27;;;;;;;24.77;9.40;;;4.10;99.90;;;;;;5072542;28;20236;-62
2022/04/09 03:29:54;;;;;;;18.97;8.97;;;4.20;99.90;;;;;;5072870;28;20190;-62
2022/04/09 03:32:20;;;;;;;24.70;8.53;;;4.10;99.90;;;;;;5073177;28;20189;-62
2022/04/09 03:34:46;;;;;;;17.87;8.33;;;4.20;99.90;;;;;;5072552;28;20206;-61
2022/04/09 03:37:12;;;;;;;18.57;8.17;;;4.20;99.90;;;;;;5073102;28;20169;-62
2022/04/09 03:39:38;;;;;;;21.93;8.27;;;4.20;99.90;;;;;;5072911;28;20197;-61
2022/04/09 03:42:05;;;;;;;20.73;9.23;;;4.10;99.90;;;;;;5072935;28;20166;-61
2022/04/09 03:44:31;;;;;;;16.33;8.93;;;4.20;99.90;;;;;;5075127;28;20590;-61
2022/04/09 03:47:00;;;;;;;18.23;8.57;;;4.20;99.90;;;;;;5076349;28;20185;-61
2022/04/09 03:49:26;;;;;;;14.13;8.20;;;4.20;99.90;;;;;;5076484;28;20214;-61
2022/04/09 03:51:52;;;;;;;20.70;9.33;;;4.20;99.90;;;;;;5076102;28;20165;-61
2022/04/09 03:54:17;;;;;;;22.17;8.70;;;4.20;99.90;;;;;;5061213;28;20210;-61
2022/04/09 03:56:43;;;;;;;15.47;8.10;;;4.20;99.90;;;;;;5070003;28;20173;-61
2022/04/09 03:59:10;;;;;;;21.20;8.23;;;4.20;99.90;;;;;;5076594;28;20189;-64
2022/04/09 04:01:36;;;;;;;13.83;7.90;;;4.20;99.90;;;;;;5075003;28;20231;-62
2022/04/09 04:04:02;;;;;;;13.23;8.40;;;4.20;99.90;;;;;;5076151;28;20197;-64
2022/04/09 04:06:28;;;;;;;18.10;7.43;;;4.20;99.90;;;;;;5075799;28;20193;-62
2022/04/09 04:08:55;;;;;;;21.47;7.60;;;4.20;99.90;;;;;;5075932;28;20682;-62
2022/04/09 04:11:22;;;;;;;22.97;8.77;;;4.20;99.90;;;;;;5075725;28;20189;-64
2022/04/09 04:13:49;;;;;;;17.97;8.37;;;4.20;99.90;;;;;;5074579;28;20206;-61
2022/04/09 04:16:17;;;;;;;17.37;8.07;;;4.10;99.90;;;;;;5076087;28;20634;-62
2022/04/09 04:18:43;;;;;;;12.30;8.30;;;4.10;99.90;;;;;;5075723;28;20185;-61
2022/04/09 04:21:09;;;;;;;18.73;8.27;;;4.10;99.90;;;;;;5075580;28;20173;-62
2022/04/09 04:23:35;;;;;;;21.67;8.53;;;4.10;99.90;;;;;;5067672;28;20189;-62
2022/04/09 04:26:02;;;;;;;14.97;7.93;;;4.10;99.90;;;;;;5063578;28;20637;-64
2022/04/09 04:28:28;;;;;;;21.93;7.70;;;4.20;99.90;;;;;;5075668;28;20194;-64
2022/04/09 04:30:54;;;;;;;14.17;7.40;;;4.10;99.90;;;;;;5074300;28;20231;-61
2022/04/09 04:33:20;;;;;;;13.47;7.67;;;4.20;99.90;;;;;;5074219;28;20201;-61
2022/04/09 04:35:46;;;;;;;11.77;7.33;;;4.20;99.90;;;;;;5075435;28;20178;-64
2022/04/09 04:38:12;;;;;;;13.10;7.57;;;4.20;99.90;;;;;;5075393;28;20196;-64
2022/04/09 04:40:38;;;;;;;10.40;6.80;;;4.20;99.90;;;;;;5074047;28;20642;-61
2022/04/09 04:43:04;;;;;;;22.20;8.10;;;4.10;99.90;;;;;;5075616;28;20189;-61
2022/04/09 04:45:30;;;;;;;16.47;8.47;;;4.10;99.90;;;;;;5075229;28;20177;-62
2022/04/09 04:47:57;;;;;;;12.20;6.93;;;4.10;99.90;;;;;;5075183;28;20178;-62
2022/04/09 04:50:23;;;;;;;23.93;9.23;;;4.10;99.90;;;;;;5073800;28;20681;-61
2022/04/09 04:52:48;;;;;;;10.80;8.17;;;4.00;99.90;;;;;;5073563;28;20173;-61
2022/04/09 04:55:14;;;;;;;15.27;8.83;;;4.00;99.90;;;;;;5055732;28;20609;-61
2022/04/09 04:57:41;;;;;;;15.47;8.93;;;4.00;99.90;;;;;;5075366;28;20228;-62
2022/04/09 05:00:08;;;;;;;14.57;8.93;;;4.00;99.90;;;;;;5073710;28;20194;-62
2022/04/09 05:02:34;;;;;;;26.47;10.07;;;4.00;99.90;;;;;;5074918;28;20178;-62
2022/04/09 05:05:03;;;;;;;17.37;9.17;;;3.90;99.90;;;;;;5074627;28;20178;-63
2022/04/09 05:07:52;;;;;;;15.57;9.40;;;3.90;99.90;;;;;;5073558;28;20173;-62
2022/04/09 05:10:23;;;;;;;19.63;9.33;;;3.90;99.90;;;;;;5074784;28;20709;-62
2022/04/09 05:12:51;;;;;;;15.73;10.20;;;3.90;99.90;;;;;;5074624;28;20319;-63
2022/04/09 05:15:17;;;;;;;22.57;9.50;;;3.90;99.90;;;;;;5075061;28;20174;-61
2022/04/09 05:17:44;;;;;;;18.83;9.13;;;3.90;99.90;;;;;;5074895;28;20201;-62
2022/04/09 05:20:14;;;;;;;12.87;8.23;;;3.90;99.90;;;;;;5074314;28;20196;-61
2022/04/09 05:22:46;;;;;;;19.57;8.50;;;3.90;99.90;;;;;;5074515;28;20158;-62
2022/04/09 05:25:14;;;;;;;17.30;7.93;;;3.90;99.90;;;;;;5055541;28;20162;-64
2022/04/09 05:27:43;;;;;;;17.67;7.70;;;4.00;99.90;;;;;;5074803;28;20198;-64
2022/04/09 05:30:09;;;;;;;16.43;8.10;;;4.00;99.90;;;;;;5073122;28;20604;-62
2022/04/09 05:32:36;;;;;;;13.60;8.33;;;4.00;99.90;;;;;;5074364;28;20179;-64
2022/04/09 05:35:05;;;;;;;13.80;8.23;;;4.00;99.90;;;;;;5074218;28;20204;-62
2022/04/09 05:37:31;;;;;;;15.43;8.17;;;4.00;99.90;;;;;;5074413;28;20177;-62
2022/04/09 05:40:03;;;;;;;23.97;7.93;;;4.00;99.90;;;;;;5072950;28;20616;-62
2022/04/09 05:42:31;;;;;;;14.10;7.53;;;4.10;99.90;;;;;;5074204;28;20179;-62
2022/04/09 05:44:57;;;;;;;14.03;7.20;;;4.10;99.90;;;;;;5074717;28;20178;-63
2022/04/09 05:47:24;;;;;;;15.20;7.30;;;4.10;99.90;;;;;;5074635;28;20476;-62
2022/04/09 05:49:56;;;;;;;13.00;7.53;;;4.10;99.90;;;;;;5074512;28;20186;-62
2022/04/09 05:52:22;;;;;;;16.50;7.77;;;4.10;99.90;;;;;;5072587;28;20250;-62
2022/04/09 05:54:48;;;;;;;22.80;7.37;;;4.20;99.90;;;;;;5055964;28;20646;-64
2022/04/09 05:57:14;;;;;;;14.50;7.47;;;4.20;99.90;;;;;;5071849;28;20708;-62
2022/04/09 05:59:40;;;;;;;17.03;7.67;;;4.30;99.90;;;;;;5074097;28;20198;-62
2022/04/09 06:02:06;;;;;;;19.73;8.27;;;4.30;99.90;;;;;;5074571;28;20257;-63
2022/04/09 06:04:32;;;;;;;17.40;8.20;;;4.40;99.90;;;;;;5072732;28;20178;-64
2022/04/09 06:07:00;;;;;;;13.10;7.30;;;4.50;99.90;;;;;;5072868;28;20174;-64
2022/04/09 06:09:25;;;;;;;16.83;7.83;;;4.50;99.90;;;;;;5073783;28;20288;-63
2022/04/09 06:11:51;;;;;;;15.33;7.50;;;4.50;99.90;;;;;;5072488;28;20292;-62
2022/04/09 06:14:17;;;;;;;19.57;7.70;;;4.50;99.90;;;;;;5073612;28;20193;-63
2022/04/09 06:16:44;;;;;;;22.33;8.40;;;4.50;99.90;;;;;;5073865;28;20174;-63
2022/04/09 06:19:10;;;;;;;13.30;7.57;;;4.60;99.90;;;;;;5074336;28;20561;-63
2022/04/09 06:21:36;;;;;;;18.07;8.00;;;4.70;99.90;;;;;;5075685;28;20174;-64
2022/04/09 06:24:02;;;;;;;20.73;8.07;;;4.70;99.90;;;;;;5060748;28;20600;-63
2022/04/09 06:26:28;;;;;;;12.80;7.50;;;4.70;99.90;;;;;;5065476;28;20208;-62
2022/04/09 06:28:55;;;;;;;16.83;8.73;;;4.70;99.90;;;;;;5073610;28;20666;-62
2022/04/09 06:31:20;;;;;;;11.17;8.37;;;4.70;99.90;;;;;;5073524;28;20178;-62
2022/04/09 06:33:46;;;;;;;19.43;8.50;;;4.80;99.90;;;;;;5073342;28;20205;-63
2022/04/09 06:36:12;;;;;;;20.00;8.80;;;4.80;99.90;;;;;;5071974;28;20169;-62
2022/04/09 06:38:38;;;;;;;18.77;8.10;;;4.70;99.90;;;;;;5073613;28;20673;-62
2022/04/09 06:41:04;;;;;;;20.07;8.40;;;4.70;99.90;;;;;;5074048;28;20166;-64
2022/04/09 06:43:30;;;;;;;16.50;8.67;;;4.80;99.90;;;;;;5074204;28;20169;-62
2022/04/09 06:45:56;;;;;;;20.73;9.70;;;4.80;99.90;;;;;;5072473;28;20174;-62
2022/04/09 06:48:22;;;;;;;17.63;8.50;;;4.60;99.90;;;;;;5072304;28;20198;-62
2022/04/09 06:50:48;;;;;;;18.27;8.67;;;4.60;99.90;;;;;;5071790;28;20201;-62
2022/04/09 06:53:14;;;;;;;21.53;9.27;;;4.60;99.90;;;;;;5068005;28;20259;-62
2022/04/09 06:55:41;;;;;;;16.60;8.27;;;4.60;99.90;;;;;;5057049;28;20185;-63
2022/04/09 06:58:07;;;;;;;14.97;8.40;;;4.60;99.90;;;;;;5073444;28;20200;-65
2022/04/09 07:00:33;;;;;;;17.87;9.37;;;4.60;99.90;;;;;;5073193;28;20174;-63
2022/04/09 07:03:00;;;;;;;20.30;9.07;;;4.60;99.90;;;;;;5071909;28;20177;-63
2022/04/09 07:05:27;;;;;;;17.37;8.43;;;4.70;99.90;;;;;;5072857;28;20257;-62
2022/04/09 07:07:53;;;;;;;20.43;8.00;;;4.80;99.90;;;;;;5073050;28;20166;-62
2022/04/09 07:10:18;;;;;;;21.10;8.93;;;4.80;99.90;;;;;;5071676;28;20603;-64
2022/04/09 07:12:44;;;;;;;16.60;9.20;;;4.90;99.90;;;;;;5073307;28;20178;-63
2022/04/09 07:15:10;;;;;;;14.40;8.50;;;5.00;99.90;;;;;;5073229;28;20223;-63
2022/04/09 07:17:37;;;;;;;16.30;8.20;;;5.10;99.90;;;;;;5073515;28;20219;-63
2022/04/09 07:20:07;;;;;;;20.27;7.63;;;5.10;99.90;;;;;;5076876;28;20210;-63
2022/04/09 07:22:35;;;;;;;13.20;7.17;;;5.20;99.90;;;;;;5076632;28;20170;-63
2022/04/09 07:25:01;;;;;;;16.47;7.27;;;5.30;99.90;;;;;;5056978;28;20562;-63
2022/04/09 07:27:41;;;;;;;15.53;6.83;;;5.40;99.90;;;;;;5076301;28;20662;-63
2022/04/09 07:30:09;;;;;;;17.20;8.57;;;5.50;99.90;;;;;;5076553;28;20301;-64
2022/04/09 07:32:35;;;;;;;12.43;6.77;;;5.40;99.90;;;;;;5076618;28;20644;-63
2022/04/09 07:35:01;;;;;;;18.50;7.40;;;5.40;99.90;;;;;;5076608;28;20200;-63
2022/04/09 07:37:27;;;;;;;10.73;7.00;;;5.40;99.90;;;;;;5074980;28;20174;-63
2022/04/09 07:39:52;;;;;;;15.37;7.47;;;5.50;99.90;;;;;;5077065;28;20288;-64
2022/04/09 07:42:20;;;;;;;13.83;7.03;;;5.50;99.90;;;;;;5076808;28;20567;-63
2022/04/09 07:44:46;;;;;;;14.63;7.90;;;5.60;99.90;;;;;;5076373;28;20185;-64
2022/04/09 07:47:12;;;;;;;9.77;7.70;;;5.60;99.90;;;;;;5076343;28;20170;-63
2022/04/09 07:49:37;;;;;;;16.20;7.57;;;5.60;99.90;;;;;;5076548;28;20255;-63
2022/04/09 07:52:03;;;;;;;18.93;8.63;;;5.60;99.90;;;;;;5076496;28;20182;-63
2022/04/09 07:54:30;;;;;;;13.70;7.83;;;5.50;99.90;;;;;;5061101;28;20555;-64
2022/04/09 07:56:57;;;;;;;14.73;8.60;;;5.60;99.90;;;;;;5071584;28;20228;-63
2022/04/09 07:59:22;;;;;;;15.77;7.67;;;5.50;99.90;;;;;;5076105;28;20606;-63
2022/04/09 08:01:48;;;;;;;14.70;7.83;;;5.50;99.90;;;;;;5077420;28;20177;-62
2022/04/09 08:04:14;;;;;;;17.47;8.20;;;5.50;99.90;;;;;;5076105;28;20158;-61
2022/04/09 08:06:40;;;;;;;17.17;7.57;;;5.50;99.90;;;;;;5075833;28;20169;-62
2022/04/09 08:09:05;;;;;;;19.80;7.07;;;5.50;99.90;;;;;;5074464;28;20200;-62
2022/04/09 08:11:31;;;;;;;13.67;7.20;;;5.60;99.90;;;;;;5074636;28;20537;-61
2022/04/09 08:13:57;;;;;;;14.47;7.07;;;5.70;99.90;;;;;;5076121;28;20205;-62
2022/04/09 08:16:25;;;;;;;15.60;7.73;;;5.70;99.90;;;;;;5075832;28;20719;-62
2022/04/09 08:18:50;;;;;;;16.83;7.30;;;5.90;99.90;;;;;;5075852;28;20243;-62
2022/04/09 08:21:18;;;;;;;10.50;7.07;;;6.00;99.90;;;;;;5075494;28;20213;-61
2022/04/09 08:23:44;;;;;;;18.90;7.60;;;6.20;99.90;;;;;;5066718;28;20186;-62
2022/04/09 08:26:09;;;;;;;9.97;5.30;;;6.20;99.90;;;;;;5064477;28;20182;-62
2022/04/09 08:28:36;;;;;;;12.87;5.77;;;6.20;99.90;;;;;;5076039;28;20201;-61
2022/04/09 08:31:02;;;;;;;10.87;5.80;;;6.30;99.90;;;;;;5075018;28;20256;-62
2022/04/09 08:33:28;;;;;;;10.37;6.13;;;6.20;99.90;;;;;;5075560;28;20662;-61
2022/04/09 08:35:54;;;;;;;15.30;6.63;;;6.30;99.90;;;;;;5074123;28;20180;-62
2022/04/09 08:38:20;;;;;;;15.57;7.70;;;6.30;99.90;;;;;;5074214;28;20221;-62
2022/04/09 08:40:47;;;;;;;15.27;7.17;;;6.50;99.90;;;;;;5075914;28;20177;-61
2022/04/09 08:43:13;;;;;;;14.00;7.70;;;6.60;99.90;;;;;;5075402;28;20170;-61
2022/04/09 08:45:42;;;;;;;15.87;8.30;;;6.40;99.90;;;;;;5075534;28;20526;-61
2022/04/09 08:48:09;;;;;;;14.07;8.50;;;5.90;99.90;;;;;;5075133;28;20200;-62
2022/04/09 08:50:36;;;;;;;9.10;7.93;;;5.90;99.90;;;;;;5075225;28;20177;-62
2022/04/09 08:53:06;;;;;;;13.83;8.10;;;6.40;99.90;;;;;;5071684;28;20175;-62
2022/04/09 08:55:40;;;;;;;9.77;6.57;;;7.50;99.90;;;;;;5057946;28;20261;-62
2022/04/09 08:58:06;;;;;;;16.30;7.30;;;8.70;99.90;;;;;;5075463;28;20189;-65
2022/04/09 09:00:33;;;;;;;11.83;6.80;;;8.70;99.90;;;;;;5075626;28;20170;-64
2022/04/09 09:03:01;;;;;;;11.33;7.13;;;9.00;99.90;;;;;;5074961;28;20161;-65
2022/04/09 09:05:34;;;;;;;14.90;7.97;;;9.20;99.90;;;;;;5074909;28;20169;-62
2022/04/09 09:08:01;;;;;;;14.43;7.80;;;8.40;99.90;;;;;;5074589;28;20574;-62
2022/04/09 09:10:27;;;;;;;13.17;7.60;;;8.00;99.90;;;;;;5074665;28;20185;-63
2022/04/09 09:13:06;;;;;;;15.57;7.97;;;7.50;99.90;;;;;;5074650;28;20190;-62
2022/04/09 09:15:46;;;;;;;16.97;8.07;;;7.00;99.90;;;;;;5074690;28;20237;-62
2022/04/09 09:18:19;;;;;;;14.60;7.70;;;6.80;99.90;;;;;;5073329;28;20194;-64
2022/04/09 09:20:57;;;;;;;13.67;8.33;;;6.60;99.90;;;;;;5074630;28;20487;-62
2022/04/09 09:23:27;;;;;;;10.03;7.47;;;7.10;99.90;;;;;;5068367;28;20182;-61
2022/04/09 09:25:55;;;;;;;13.03;8.00;;;7.50;99.90;;;;;;5061383;28;20254;-62
2022/04/09 09:28:28;;;;;;;13.20;8.77;;;7.60;99.90;;;;;;5074597;28;20203;-61
2022/04/09 09:30:55;;;;;;;8.97;7.30;;;8.10;99.90;;;;;;5073176;28;20178;-61
2022/04/09 09:33:21;;;;;;;16.07;7.83;;;8.30;99.90;;;;;;5074152;28;20193;-61
2022/04/09 09:35:52;;;;;;;12.77;7.10;;;8.40;99.90;;;;;;5074296;28;20237;-62
2022/04/09 09:38:18;;;;;;;10.00;6.87;;;8.10;99.90;;;;;;5074196;28;20186;-62
2022/04/09 09:40:44;;;;;;;9.30;6.87;;;7.70;99.90;;;;;;5074135;28;20193;-61
2022/04/09 09:43:14;;;;;;;11.60;6.53;;;7.60;99.90;;;;;;5074170;28;20638;-61
2022/04/09 09:45:41;;;;;;;12.07;6.80;;;7.50;99.90;;;;;;5074365;28;20180;-61
2022/04/09 09:48:24;;;;;;;11.43;7.20;;;7.40;99.90;;;;;;5072790;28;20182;-62
2022/04/09 09:50:51;;;;;;;13.33;7.50;;;7.40;99.90;;;;;;5074209;28;20192;-62
2022/04/09 09:53:27;;;;;;;7.63;6.80;;;7.50;99.90;;;;;;5068452;28;20623;-61
2022/04/09 09:55:53;;;;;;;10.53;7.40;;;7.40;99.90;;;;;;5060916;28;20225;-61
2022/04/09 09:58:21;;;;;;;12.10;6.47;;;7.30;99.90;;;;;;5073979;28;20276;-61
2022/04/09 10:00:47;;;;;;;9.97;6.33;;;7.30;99.90;;;;;;5074112;28;20178;-62
2022/04/09 10:03:14;;;;;;;10.10;6.10;;;7.30;99.90;;;;;;5073886;28;20244;-62
2022/04/09 10:05:41;;;;;;;10.10;6.40;;;7.40;99.90;;;;;;5073779;28;20205;-62
2022/04/09 10:08:07;;;;;;;9.97;5.97;;;7.40;99.90;;;;;;5073502;28;20705;-61
2022/04/09 10:10:37;;;;;;;7.20;5.40;;;7.40;99.90;;;;;;5073869;28;20272;-62
2022/04/09 10:13:06;;;;;;;5.67;4.83;;;7.20;99.90;;;;;;5073949;28;20242;-61
2022/04/09 10:15:33;;;;;;;9.33;5.10;;;7.00;99.90;;;;;;5074173;28;20245;-62
2022/04/09 10:18:02;;;;;;;4.83;4.30;;;6.70;99.90;;;;;;5073576;28;20177;-63
2022/04/09 10:20:29;;;;;;;4.60;4.30;;;6.40;99.90;;;;;;5074140;28;20173;-61
2022/04/09 10:22:58;;;;;;;4.40;4.00;;;6.20;99.90;;;;;;5069671;28;20170;-64
2022/04/09 10:25:29;;;;;;;4.83;4.47;;;6.20;99.90;;;;;;5056267;28;20174;-62
2022/04/09 10:28:03;;;;;;;4.10;3.90;;;6.30;99.90;;;;;;5073912;28;20176;-63
2022/04/09 10:30:39;;;;;;;5.37;4.03;;;6.20;99.90;;;;;;5072684;28;20205;-63
2022/04/09 10:33:23;;;;;;;6.20;4.60;;;6.30;99.90;;;;;;5072870;28;20543;-63
2022/04/09 10:35:49;;;;;;;6.63;4.47;;;6.40;99.90;;;;;;5072543;28;20182;-61
2022/04/09 10:38:20;;;;;;;5.00;4.57;;;7.00;99.90;;;;;;5073434;28;20194;-62
2022/04/09 10:40:49;;;;;;;5.53;4.80;;;7.10;99.90;;;;;;5074016;28;20158;-62
2022/04/09 10:43:24;;;;;;;7.43;5.23;;;7.30;99.90;;;;;;5074728;28;20177;-65
2022/04/09 10:46:02;;;;;;;8.67;4.37;;;7.50;99.90;;;;;;5072719;28;20188;-63
2022/04/09 10:48:39;;;;;;;6.77;4.80;;;7.60;99.90;;;;;;5073279;28;20197;-61
2022/04/09 10:51:12;;;;;;;4.97;4.47;;;7.70;99.90;;;;;;5073503;28;20158;-63
2022/04/09 10:53:39;;;;;;;5.17;4.67;;;7.70;99.90;;;;;;5066803;28;20198;-63
2022/04/09 10:56:24;;;;;;;8.00;4.60;;;8.00;99.90;;;;;;5065721;28;20181;-63
2022/04/09 10:59:16;;;;;;;9.17;4.83;;;8.30;99.90;;;;;;5076107;28;20682;-62
2022/04/09 11:01:54;;;;;;;4.87;4.33;;;8.40;99.90;;;;;;5077446;28;20154;-62
2022/04/09 11:04:32;;;;;;;4.97;4.57;;;8.80;99.90;;;;;;5077455;28;20158;-63
2022/04/09 11:07:10;;;;;;;6.20;3.80;;;9.30;99.90;;;;;;5075851;28;20178;-63
2022/04/09 11:09:54;;;;;;;5.20;4.37;;;9.40;99.90;;;;;;5077104;28;20232;-63
2022/04/09 11:12:38;;;;;;;7.83;4.40;;;9.60;99.90;;;;;;5077449;28;20169;-63
2022/04/09 11:15:10;;;;;;;3.60;3.30;;;9.30;99.90;;;;;;5077474;28;20646;-62
2022/04/09 11:17:37;;;;;;;4.17;3.83;;;6.70;99.90;;;;;;5077109;28;20566;-62
2022/04/09 11:20:14;;;;;;;4.30;4.00;;;5.30;99.90;;;;;;5076872;28;20209;-62
2022/04/09 11:22:42;;;;;;;4.03;3.83;;;4.90;99.90;;;;;;5076524;28;20635;-63
2022/04/09 11:25:17;;;;;;;4.10;3.80;;;5.40;99.90;;;;;;5057880;28;20212;-62
2022/04/09 11:27:42;;;;;;;3.80;3.60;;;5.50;99.90;;;;;;5077249;28;20162;-62
2022/04/09 11:30:09;;;;;;;4.10;3.90;;;5.40;99.90;;;;;;5077909;28;20186;-62
2022/04/09 11:32:38;;;;;;;4.23;3.93;;;5.40;99.90;;;;;;5077076;28;20174;-63
2022/04/09 11:35:10;;;;;;;4.03;3.83;;;5.40;99.90;;;;;;5078032;28;20226;-64
2022/04/09 11:37:41;;;;;;;5.63;4.40;;;5.40;99.90;;;;;;5077310;28;20169;-63
2022/04/09 11:40:08;;;;;;;4.67;4.33;;;5.30;99.90;;;;;;5077008;28;20190;-63
2022/04/09 11:42:51;;;;;;;4.90;4.50;;;5.30;99.90;;;;;;5077267;28;20692;-64
2022/04/09 11:45:18;;;;;;;6.53;4.80;;;5.30;99.90;;;;;;5076909;28;20158;-64
2022/04/09 11:47:44;;;;;;;5.53;5.07;;;5.20;99.90;;;;;;5076590;28;20249;-65
2022/04/09 11:50:16;;;;;;;5.53;5.03;;;5.10;99.90;;;;;;5076720;28;20672;-66
2022/04/09 11:52:42;;;;;;;5.93;5.03;;;4.90;99.90;;;;;;5075751;28;20249;-63
2022/04/09 11:55:12;;;;;;;6.73;5.30;;;4.70;99.90;;;;;;5056875;28;20277;-62
2022/04/09 11:57:39;;;;;;;5.40;5.10;;;4.20;99.90;;;;;;5075148;28;20181;-62
2022/04/09 12:00:06;;;;;;;5.90;4.70;;;4.20;99.90;;;;;;5076202;28;20194;-63
2022/04/09 12:02:32;;;;;;;5.20;4.80;;;3.90;99.90;;;;;;5076211;28;20185;-64
2022/04/09 12:04:59;;;;;;;5.07;4.77;;;3.90;99.90;;;;;;5076619;28;20178;-62
2022/04/09 12:07:27;;;;;;;4.90;4.60;;;3.80;99.90;;;;;;5076158;28;20253;-62
2022/04/09 12:09:54;;;;;;;4.63;4.27;;;3.80;99.90;;;;;;5076194;28;20186;-62
2022/04/09 12:12:20;;;;;;;5.20;4.80;;;3.60;99.90;;;;;;5075429;28;20208;-63
2022/04/09 12:14:57;;;;;;;5.00;4.60;;;3.40;99.90;;;;;;5076349;28;20200;-62
2022/04/09 12:17:32;;;;;;;4.80;4.50;;;3.40;99.90;;;;;;5075869;28;20209;-63
2022/04/09 12:19:58;;;;;;;5.07;4.77;;;3.60;99.90;;;;;;5076449;28;20272;-62
2022/04/09 12:22:24;;;;;;;6.37;4.60;;;3.70;99.90;;;;;;5075811;28;20327;-62
2022/04/09 12:24:50;;;;;;;5.53;5.10;;;3.90;99.90;;;;;;5057471;28;20201;-62
2022/04/09 12:27:16;;;;;;;5.50;4.93;;;4.20;99.90;;;;;;5073854;28;20209;-62
2022/04/09 12:29:51;;;;;;;7.40;5.43;;;4.40;99.90;;;;;;5074311;28;20189;-63
2022/04/09 12:32:25;;;;;;;7.00;4.97;;;4.80;99.90;;;;;;5074359;28;20701;-63
2022/04/09 12:35:08;;;;;;;6.23;4.63;;;5.20;99.90;;;;;;5075819;28;20652;-63
2022/04/09 12:37:47;;;;;;;5.20;4.80;;;5.70;99.90;;;;;;5076136;28;20181;-62
2022/04/09 12:40:15;;;;;;;5.23;4.63;;;6.60;99.90;;;;;;5075529;28;20193;-61
2022/04/09 12:42:41;;;;;;;5.20;4.70;;;6.80;99.90;;;;;;5075702;28;20170;-62
2022/04/09 12:45:13;;;;;;;5.80;4.73;;;7.20;99.90;;;;;;5076022;28;20646;-63
2022/04/09 12:47:39;;;;;;;5.97;4.70;;;7.60;99.90;;;;;;5075532;28;20205;-62
2022/04/09 12:50:16;;;;;;;8.07;4.60;;;8.10;99.90;;;;;;5074036;28;20267;-62
2022/04/09 12:52:42;;;;;;;4.40;4.10;;;8.40;99.90;;;;;;5074491;28;20165;-63